Almedia, Pennsylvania
Current Conditions -  °F | °C
As of 10:35 PM on Saturday 25 Oct 2014 (Local Time) from KHZL Reporting Station
Broken Clouds Broken Clouds  
Wind Chill: 61°   Ceiling: 9000
Heat Index: 61°   Visibility: 10mi
Dew Point: 46°   Wind: 8mph
Humidity: 59%   Direction: 250°WSW
Pressure: 29.64"   Gusts: NA
Location:  41.0301°N, 76.4558°W
Report Text: KHZL 260235Z AUTO 25007KT 220V280 10SM SCT080 BKN090 16/08 A2964 RMK AO2
Loading
Personal Weather Stations






























Interactive Weather Map
Tropical Storm Tracking
New forecast layout! Learn more

10-Day Weather Forecast

Advertisements
Track Severe Weather on mobile